sensor_id;sensor_type;location;lat;lon;timestamp;temperature;humidity
38606;DHT22;24365;48.446;8.850;2024-01-25T00:02:37;8.70;73.00
38606;DHT22;24365;48.446;8.850;2024-01-25T00:07:45;8.80;72.50
38606;DHT22;24365;48.446;8.850;2024-01-25T00:12:46;8.80;72.80
38606;DHT22;24365;48.446;8.850;2024-01-25T00:17:47;8.80;73.10
38606;DHT22;24365;48.446;8.850;2024-01-25T00:22:47;8.80;73.50
38606;DHT22;24365;48.446;8.850;2024-01-25T00:27:49;8.90;73.40
38606;DHT22;24365;48.446;8.850;2024-01-25T00:32:50;8.90;72.90
38606;DHT22;24365;48.446;8.850;2024-01-25T00:37:50;8.80;72.70
38606;DHT22;24365;48.446;8.850;2024-01-25T00:42:51;8.80;71.80
38606;DHT22;24365;48.446;8.850;2024-01-25T00:47:56;8.90;71.00
38606;DHT22;24365;48.446;8.850;2024-01-25T00:52:57;8.90;70.60
38606;DHT22;24365;48.446;8.850;2024-01-25T00:57:58;8.90;70.60
38606;DHT22;24365;48.446;8.850;2024-01-25T01:03:00;8.80;68.50
38606;DHT22;24365;48.446;8.850;2024-01-25T01:08:03;8.80;67.40
38606;DHT22;24365;48.446;8.850;2024-01-25T01:13:03;8.70;66.60
38606;DHT22;24365;48.446;8.850;2024-01-25T01:18:04;8.70;66.70
38606;DHT22;24365;48.446;8.850;2024-01-25T01:23:05;8.60;67.60
38606;DHT22;24365;48.446;8.850;2024-01-25T01:28:06;8.50;67.80
38606;DHT22;24365;48.446;8.850;2024-01-25T01:33:10;8.50;69.40
38606;DHT22;24365;48.446;8.850;2024-01-25T01:38:11;8.50;70.70
38606;DHT22;24365;48.446;8.850;2024-01-25T01:43:18;8.40;70.70
38606;DHT22;24365;48.446;8.850;2024-01-25T01:48:20;8.40;71.50
38606;DHT22;24365;48.446;8.850;2024-01-25T01:53:21;8.20;73.20
38606;DHT22;24365;48.446;8.850;2024-01-25T01:58:22;8.20;74.30
38606;DHT22;24365;48.446;8.850;2024-01-25T02:03:23;8.30;76.70
38606;DHT22;24365;48.446;8.850;2024-01-25T02:08:24;8.30;78.80
38606;DHT22;24365;48.446;8.850;2024-01-25T02:13:27;8.30;79.70
38606;DHT22;24365;48.446;8.850;2024-01-25T02:18:28;8.20;81.20
38606;DHT22;24365;48.446;8.850;2024-01-25T02:23:29;8.20;83.00
38606;DHT22;24365;48.446;8.850;2024-01-25T02:28:30;8.10;83.40
38606;DHT22;24365;48.446;8.850;2024-01-25T02:33:30;8.00;83.30
38606;DHT22;24365;48.446;8.850;2024-01-25T02:38:31;7.90;85.30
38606;DHT22;24365;48.446;8.850;2024-01-25T02:43:32;7.90;85.60
38606;DHT22;24365;48.446;8.850;2024-01-25T02:48:34;7.80;85.80
38606;DHT22;24365;48.446;8.850;2024-01-25T02:53:35;7.80;85.70
38606;DHT22;24365;48.446;8.850;2024-01-25T02:58:36;7.70;86.00
38606;DHT22;24365;48.446;8.850;2024-01-25T03:03:37;7.70;86.00
38606;DHT22;24365;48.446;8.850;2024-01-25T03:08:37;7.70;86.80
38606;DHT22;24365;48.446;8.850;2024-01-25T03:13:38;7.70;88.70
38606;DHT22;24365;48.446;8.850;2024-01-25T03:18:39;7.70;89.80
38606;DHT22;24365;48.446;8.850;2024-01-25T03:23:40;7.70;89.80
38606;DHT22;24365;48.446;8.850;2024-01-25T03:28:41;7.60;88.80
38606;DHT22;24365;48.446;8.850;2024-01-25T03:33:42;7.60;89.50
38606;DHT22;24365;48.446;8.850;2024-01-25T03:38:42;7.60;89.30
38606;DHT22;24365;48.446;8.850;2024-01-25T03:43:44;7.60;88.60
38606;DHT22;24365;48.446;8.850;2024-01-25T03:48:45;7.50;88.60
38606;DHT22;24365;48.446;8.850;2024-01-25T03:53:46;7.50;88.30
38606;DHT22;24365;48.446;8.850;2024-01-25T03:58:47;7.50;88.80
38606;DHT22;24365;48.446;8.850;2024-01-25T04:03:48;7.50;88.90
38606;DHT22;24365;48.446;8.850;2024-01-25T04:08:49;7.40;88.70
38606;DHT22;24365;48.446;8.850;2024-01-25T04:13:49;7.50;88.80
38606;DHT22;24365;48.446;8.850;2024-01-25T04:18:51;7.40;88.10
38606;DHT22;24365;48.446;8.850;2024-01-25T04:23:51;7.40;87.80
38606;DHT22;24365;48.446;8.850;2024-01-25T04:28:52;7.40;90.30
38606;DHT22;24365;48.446;8.850;2024-01-25T04:33:53;7.30;90.00
38606;DHT22;24365;48.446;8.850;2024-01-25T04:38:54;7.30;89.50
38606;DHT22;24365;48.446;8.850;2024-01-25T04:43:55;7.30;89.10
38606;DHT22;24365;48.446;8.850;2024-01-25T04:48:56;7.30;88.90
38606;DHT22;24365;48.446;8.850;2024-01-25T04:53:56;7.30;88.90
38606;DHT22;24365;48.446;8.850;2024-01-25T04:58:57;7.40;88.70
38606;DHT22;24365;48.446;8.850;2024-01-25T05:03:58;7.30;89.20
38606;DHT22;24365;48.446;8.850;2024-01-25T05:08:59;7.40;88.90
38606;DHT22;24365;48.446;8.850;2024-01-25T05:14:00;7.40;88.20
38606;DHT22;24365;48.446;8.850;2024-01-25T05:19:01;7.40;88.30
38606;DHT22;24365;48.446;8.850;2024-01-25T05:24:02;7.30;88.20
38606;DHT22;24365;48.446;8.850;2024-01-25T05:29:03;7.40;86.30
38606;DHT22;24365;48.446;8.850;2024-01-25T05:34:04;7.40;85.90
38606;DHT22;24365;48.446;8.850;2024-01-25T05:39:04;7.40;85.50
38606;DHT22;24365;48.446;8.850;2024-01-25T05:44:07;7.40;85.10
38606;DHT22;24365;48.446;8.850;2024-01-25T05:49:08;7.40;85.20
38606;DHT22;24365;48.446;8.850;2024-01-25T05:54:09;7.30;85.90
38606;DHT22;24365;48.446;8.850;2024-01-25T05:59:09;7.40;86.00
38606;DHT22;24365;48.446;8.850;2024-01-25T06:04:10;7.40;85.70
38606;DHT22;24365;48.446;8.850;2024-01-25T06:09:11;7.30;86.50
38606;DHT22;24365;48.446;8.850;2024-01-25T06:14:12;7.20;85.90
38606;DHT22;24365;48.446;8.850;2024-01-25T06:19:14;7.10;86.50
38606;DHT22;24365;48.446;8.850;2024-01-25T06:24:15;7.00;86.60
38606;DHT22;24365;48.446;8.850;2024-01-25T06:29:16;7.00;87.10
38606;DHT22;24365;48.446;8.850;2024-01-25T06:34:17;6.90;87.00
38606;DHT22;24365;48.446;8.850;2024-01-25T06:39:18;6.90;87.30
38606;DHT22;24365;48.446;8.850;2024-01-25T06:44:19;6.80;88.10
38606;DHT22;24365;48.446;8.850;2024-01-25T06:49:20;6.80;87.10
38606;DHT22;24365;48.446;8.850;2024-01-25T06:54:21;6.70;87.30
38606;DHT22;24365;48.446;8.850;2024-01-25T06:59:22;6.70;87.20
38606;DHT22;24365;48.446;8.850;2024-01-25T07:04:23;6.60;86.60
38606;DHT22;24365;48.446;8.850;2024-01-25T07:09:24;6.50;86.10
38606;DHT22;24365;48.446;8.850;2024-01-25T07:14:24;6.50;86.30
38606;DHT22;24365;48.446;8.850;2024-01-25T07:19:25;6.40;85.50
38606;DHT22;24365;48.446;8.850;2024-01-25T07:24:26;6.30;86.00
38606;DHT22;24365;48.446;8.850;2024-01-25T07:29:27;6.30;85.40
38606;DHT22;24365;48.446;8.850;2024-01-25T07:34:29;6.20;85.10
38606;DHT22;24365;48.446;8.850;2024-01-25T07:39:30;6.10;86.10
38606;DHT22;24365;48.446;8.850;2024-01-25T07:44:31;6.10;85.90
38606;DHT22;24365;48.446;8.850;2024-01-25T07:49:32;6.10;85.90
38606;DHT22;24365;48.446;8.850;2024-01-25T07:54:33;6.00;84.60
38606;DHT22;24365;48.446;8.850;2024-01-25T07:59:34;5.90;86.00
38606;DHT22;24365;48.446;8.850;2024-01-25T08:04:35;5.80;86.40
38606;DHT22;24365;48.446;8.850;2024-01-25T08:09:35;5.80;86.20
38606;DHT22;24365;48.446;8.850;2024-01-25T08:14:36;5.80;86.90
38606;DHT22;24365;48.446;8.850;2024-01-25T08:19:37;5.60;86.50
38606;DHT22;24365;48.446;8.850;2024-01-25T08:24:39;5.60;86.90
38606;DHT22;24365;48.446;8.850;2024-01-25T08:29:40;5.70;87.20
38606;DHT22;24365;48.446;8.850;2024-01-25T08:34:41;5.80;85.90
38606;DHT22;24365;48.446;8.850;2024-01-25T08:39:42;5.70;85.50
38606;DHT22;24365;48.446;8.850;2024-01-25T08:44:46;5.70;85.30
38606;DHT22;24365;48.446;8.850;2024-01-25T08:49:50;5.80;85.50
38606;DHT22;24365;48.446;8.850;2024-01-25T08:54:50;5.80;85.20
38606;DHT22;24365;48.446;8.850;2024-01-25T08:59:51;5.80;85.70
38606;DHT22;24365;48.446;8.850;2024-01-25T09:04:53;5.80;86.40
38606;DHT22;24365;48.446;8.850;2024-01-25T09:09:54;5.70;86.90
38606;DHT22;24365;48.446;8.850;2024-01-25T09:14:55;5.80;88.00
38606;DHT22;24365;48.446;8.850;2024-01-25T09:19:55;5.90;88.90
38606;DHT22;24365;48.446;8.850;2024-01-25T09:24:59;6.10;89.60
38606;DHT22;24365;48.446;8.850;2024-01-25T09:30:01;6.50;89.50
38606;DHT22;24365;48.446;8.850;2024-01-25T09:35:02;6.70;88.80
38606;DHT22;24365;48.446;8.850;2024-01-25T09:40:03;6.90;87.90
38606;DHT22;24365;48.446;8.850;2024-01-25T09:45:05;7.10;87.10
38606;DHT22;24365;48.446;8.850;2024-01-25T09:50:07;7.20;86.30
38606;DHT22;24365;48.446;8.850;2024-01-25T09:55:08;7.30;85.00
38606;DHT22;24365;48.446;8.850;2024-01-25T10:00:14;7.50;84.10
38606;DHT22;24365;48.446;8.850;2024-01-25T10:05:15;7.60;83.00
38606;DHT22;24365;48.446;8.850;2024-01-25T10:10:16;7.70;82.40
38606;DHT22;24365;48.446;8.850;2024-01-25T10:15:17;7.80;81.50
38606;DHT22;24365;48.446;8.850;2024-01-25T10:20:18;8.10;80.70
38606;DHT22;24365;48.446;8.850;2024-01-25T10:25:21;8.30;80.60
38606;DHT22;24365;48.446;8.850;2024-01-25T10:30:22;8.30;78.70
38606;DHT22;24365;48.446;8.850;2024-01-25T10:35:24;8.40;78.60
38606;DHT22;24365;48.446;8.850;2024-01-25T10:40:26;8.60;77.90
38606;DHT22;24365;48.446;8.850;2024-01-25T10:45:27;8.70;77.80
38606;DHT22;24365;48.446;8.850;2024-01-25T10:50:28;8.90;76.90
38606;DHT22;24365;48.446;8.850;2024-01-25T10:55:29;9.00;74.30
38606;DHT22;24365;48.446;8.850;2024-01-25T11:00:31;9.00;72.80
38606;DHT22;24365;48.446;8.850;2024-01-25T11:05:32;9.20;72.20
38606;DHT22;24365;48.446;8.850;2024-01-25T11:10:34;9.40;71.50
38606;DHT22;24365;48.446;8.850;2024-01-25T11:15:36;9.40;72.00
38606;DHT22;24365;48.446;8.850;2024-01-25T11:20:37;9.60;71.50
38606;DHT22;24365;48.446;8.850;2024-01-25T11:25:38;9.80;67.90
38606;DHT22;24365;48.446;8.850;2024-01-25T11:30:39;9.70;66.90
38606;DHT22;24365;48.446;8.850;2024-01-25T11:35:40;9.80;66.50
38606;DHT22;24365;48.446;8.850;2024-01-25T11:40:42;9.80;66.00
38606;DHT22;24365;48.446;8.850;2024-01-25T11:45:44;9.60;65.70
38606;DHT22;24365;48.446;8.850;2024-01-25T11:50:45;9.40;65.70
38606;DHT22;24365;48.446;8.850;2024-01-25T11:55:47;9.40;67.10
38606;DHT22;24365;48.446;8.850;2024-01-25T12:00:47;9.60;66.00
38606;DHT22;24365;48.446;8.850;2024-01-25T12:05:49;9.80;66.20
38606;DHT22;24365;48.446;8.850;2024-01-25T12:10:50;9.90;66.10
38606;DHT22;24365;48.446;8.850;2024-01-25T12:15:52;9.90;65.60
38606;DHT22;24365;48.446;8.850;2024-01-25T12:20:53;10.00;65.80
38606;DHT22;24365;48.446;8.850;2024-01-25T12:25:54;10.10;64.50
38606;DHT22;24365;48.446;8.850;2024-01-25T12:30:55;10.20;65.00
38606;DHT22;24365;48.446;8.850;2024-01-25T12:35:56;10.20;64.40
38606;DHT22;24365;48.446;8.850;2024-01-25T12:40:57;10.20;64.40
38606;DHT22;24365;48.446;8.850;2024-01-25T12:45:58;10.50;64.70
38606;DHT22;24365;48.446;8.850;2024-01-25T12:50:58;10.70;62.20
38606;DHT22;24365;48.446;8.850;2024-01-25T12:56:00;10.70;62.20
38606;DHT22;24365;48.446;8.850;2024-01-25T13:01:00;10.50;63.50
38606;DHT22;24365;48.446;8.850;2024-01-25T13:06:02;10.40;65.20
38606;DHT22;24365;48.446;8.850;2024-01-25T13:11:04;10.30;65.00
38606;DHT22;24365;48.446;8.850;2024-01-25T13:16:05;10.30;66.40
38606;DHT22;24365;48.446;8.850;2024-01-25T13:21:06;10.20;67.70
38606;DHT22;24365;48.446;8.850;2024-01-25T13:26:07;10.30;68.30
38606;DHT22;24365;48.446;8.850;2024-01-25T13:31:07;10.20;67.80
38606;DHT22;24365;48.446;8.850;2024-01-25T13:36:08;10.00;68.20
38606;DHT22;24365;48.446;8.850;2024-01-25T13:41:11;10.10;69.20
38606;DHT22;24365;48.446;8.850;2024-01-25T13:46:12;10.00;69.10
38606;DHT22;24365;48.446;8.850;2024-01-25T13:51:13;9.90;68.90
38606;DHT22;24365;48.446;8.850;2024-01-25T13:56:14;9.90;69.50
38606;DHT22;24365;48.446;8.850;2024-01-25T14:01:14;9.90;70.40
38606;DHT22;24365;48.446;8.850;2024-01-25T14:06:15;9.90;71.20
38606;DHT22;24365;48.446;8.850;2024-01-25T14:11:16;9.90;70.60
38606;DHT22;24365;48.446;8.850;2024-01-25T14:16:17;9.90;69.10
38606;DHT22;24365;48.446;8.850;2024-01-25T14:21:18;10.00;70.80
38606;DHT22;24365;48.446;8.850;2024-01-25T14:26:21;10.10;68.70
38606;DHT22;24365;48.446;8.850;2024-01-25T14:31:22;10.10;69.00
38606;DHT22;24365;48.446;8.850;2024-01-25T14:36:23;10.00;70.30
38606;DHT22;24365;48.446;8.850;2024-01-25T14:41:24;10.00;72.10
38606;DHT22;24365;48.446;8.850;2024-01-25T14:46:25;10.00;73.10
38606;DHT22;24365;48.446;8.850;2024-01-25T14:51:26;9.90;73.70
38606;DHT22;24365;48.446;8.850;2024-01-25T14:56:27;9.90;74.30
38606;DHT22;24365;48.446;8.850;2024-01-25T15:01:28;9.80;75.00
38606;DHT22;24365;48.446;8.850;2024-01-25T15:06:30;9.80;75.40
38606;DHT22;24365;48.446;8.850;2024-01-25T15:11:31;9.80;76.20
38606;DHT22;24365;48.446;8.850;2024-01-25T15:16:32;9.80;76.40
38606;DHT22;24365;48.446;8.850;2024-01-25T15:21:33;9.60;77.00
38606;DHT22;24365;48.446;8.850;2024-01-25T15:26:34;9.60;78.30
38606;DHT22;24365;48.446;8.850;2024-01-25T15:31:37;9.50;79.20
38606;DHT22;24365;48.446;8.850;2024-01-25T15:36:38;9.50;79.50
38606;DHT22;24365;48.446;8.850;2024-01-25T15:41:44;9.50;79.10
38606;DHT22;24365;48.446;8.850;2024-01-25T15:46:52;9.50;79.40
38606;DHT22;24365;48.446;8.850;2024-01-25T15:51:53;9.40;79.30
38606;DHT22;24365;48.446;8.850;2024-01-25T15:56:53;9.40;79.80
38606;DHT22;24365;48.446;8.850;2024-01-25T16:01:54;9.30;80.20
38606;DHT22;24365;48.446;8.850;2024-01-25T16:06:55;9.30;80.20
38606;DHT22;24365;48.446;8.850;2024-01-25T16:11:56;9.20;80.50
38606;DHT22;24365;48.446;8.850;2024-01-25T16:16:57;9.20;80.80
38606;DHT22;24365;48.446;8.850;2024-01-25T16:21:58;9.10;80.90
38606;DHT22;24365;48.446;8.850;2024-01-25T16:26:59;9.10;81.60
38606;DHT22;24365;48.446;8.850;2024-01-25T16:31:59;8.90;82.10
38606;DHT22;24365;48.446;8.850;2024-01-25T16:37:00;8.90;82.60
38606;DHT22;24365;48.446;8.850;2024-01-25T16:42:02;8.90;83.00
38606;DHT22;24365;48.446;8.850;2024-01-25T16:47:03;8.80;83.20
38606;DHT22;24365;48.446;8.850;2024-01-25T16:52:05;8.70;83.80
38606;DHT22;24365;48.446;8.850;2024-01-25T16:57:06;8.70;84.60
38606;DHT22;24365;48.446;8.850;2024-01-25T17:02:07;8.70;84.90
38606;DHT22;24365;48.446;8.850;2024-01-25T17:07:08;8.70;85.30
38606;DHT22;24365;48.446;8.850;2024-01-25T17:12:09;8.60;85.90
38606;DHT22;24365;48.446;8.850;2024-01-25T17:17:12;8.50;86.00
38606;DHT22;24365;48.446;8.850;2024-01-25T17:22:12;8.50;86.10
38606;DHT22;24365;48.446;8.850;2024-01-25T17:27:14;8.50;86.30
38606;DHT22;24365;48.446;8.850;2024-01-25T17:32:15;8.40;86.60
38606;DHT22;24365;48.446;8.850;2024-01-25T17:37:16;8.40;86.70
38606;DHT22;24365;48.446;8.850;2024-01-25T17:42:17;8.40;87.00
38606;DHT22;24365;48.446;8.850;2024-01-25T17:47:17;8.40;87.20
38606;DHT22;24365;48.446;8.850;2024-01-25T17:52:18;8.30;87.50
38606;DHT22;24365;48.446;8.850;2024-01-25T17:57:19;8.20;87.60
38606;DHT22;24365;48.446;8.850;2024-01-25T18:02:20;8.20;87.40
38606;DHT22;24365;48.446;8.850;2024-01-25T18:07:21;8.20;87.20
38606;DHT22;24365;48.446;8.850;2024-01-25T18:12:22;8.10;87.80
38606;DHT22;24365;48.446;8.850;2024-01-25T18:17:23;8.00;87.50
38606;DHT22;24365;48.446;8.850;2024-01-25T18:22:24;8.00;87.60
38606;DHT22;24365;48.446;8.850;2024-01-25T18:27:25;8.00;87.70
38606;DHT22;24365;48.446;8.850;2024-01-25T18:32:25;8.00;87.40
38606;DHT22;24365;48.446;8.850;2024-01-25T18:37:26;7.90;87.50
38606;DHT22;24365;48.446;8.850;2024-01-25T18:42:28;7.90;87.40
38606;DHT22;24365;48.446;8.850;2024-01-25T18:47:29;7.80;87.50
38606;DHT22;24365;48.446;8.850;2024-01-25T18:52:30;7.80;87.50
38606;DHT22;24365;48.446;8.850;2024-01-25T18:57:33;7.70;87.20
38606;DHT22;24365;48.446;8.850;2024-01-25T19:02:34;7.70;87.20
38606;DHT22;24365;48.446;8.850;2024-01-25T19:07:36;7.60;86.60
38606;DHT22;24365;48.446;8.850;2024-01-25T19:12:37;7.60;87.20
38606;DHT22;24365;48.446;8.850;2024-01-25T19:17:38;7.60;87.30
38606;DHT22;24365;48.446;8.850;2024-01-25T19:22:39;7.50;87.50
38606;DHT22;24365;48.446;8.850;2024-01-25T19:27:40;7.50;87.70
38606;DHT22;24365;48.446;8.850;2024-01-25T19:32:42;7.40;87.90
38606;DHT22;24365;48.446;8.850;2024-01-25T19:37:43;7.50;88.20
38606;DHT22;24365;48.446;8.850;2024-01-25T19:42:44;7.40;88.20
38606;DHT22;24365;48.446;8.850;2024-01-25T19:47:45;7.40;88.10
38606;DHT22;24365;48.446;8.850;2024-01-25T19:52:46;7.40;88.70
38606;DHT22;24365;48.446;8.850;2024-01-25T19:57:47;7.40;88.50
38606;DHT22;24365;48.446;8.850;2024-01-25T20:02:48;7.40;88.20
38606;DHT22;24365;48.446;8.850;2024-01-25T20:07:49;7.40;88.30
38606;DHT22;24365;48.446;8.850;2024-01-25T20:12:50;7.30;88.40
38606;DHT22;24365;48.446;8.850;2024-01-25T20:17:51;7.40;89.00
38606;DHT22;24365;48.446;8.850;2024-01-25T20:22:52;7.40;89.50
38606;DHT22;24365;48.446;8.850;2024-01-25T20:27:54;7.30;89.20
38606;DHT22;24365;48.446;8.850;2024-01-25T20:32:55;7.30;89.40
38606;DHT22;24365;48.446;8.850;2024-01-25T20:37:56;7.30;89.00
38606;DHT22;24365;48.446;8.850;2024-01-25T20:42:57;7.30;89.10
38606;DHT22;24365;48.446;8.850;2024-01-25T20:47:58;7.30;88.60
38606;DHT22;24365;48.446;8.850;2024-01-25T20:52:58;7.20;88.60
38606;DHT22;24365;48.446;8.850;2024-01-25T20:57:59;7.20;89.40
38606;DHT22;24365;48.446;8.850;2024-01-25T21:03:00;7.30;90.00
38606;DHT22;24365;48.446;8.850;2024-01-25T21:08:01;7.30;90.60
38606;DHT22;24365;48.446;8.850;2024-01-25T21:13:03;7.30;92.00
38606;DHT22;24365;48.446;8.850;2024-01-25T21:18:04;7.30;92.80
38606;DHT22;24365;48.446;8.850;2024-01-25T21:23:05;7.30;92.80
38606;DHT22;24365;48.446;8.850;2024-01-25T21:28:06;7.30;92.40
38606;DHT22;24365;48.446;8.850;2024-01-25T21:33:07;7.20;92.10
38606;DHT22;24365;48.446;8.850;2024-01-25T21:38:09;7.20;91.80
38606;DHT22;24365;48.446;8.850;2024-01-25T21:43:09;7.20;91.70
38606;DHT22;24365;48.446;8.850;2024-01-25T21:48:10;7.10;91.30
38606;DHT22;24365;48.446;8.850;2024-01-25T21:53:11;7.10;90.70
38606;DHT22;24365;48.446;8.850;2024-01-25T21:58:12;7.00;90.40
38606;DHT22;24365;48.446;8.850;2024-01-25T22:03:13;6.90;90.20
38606;DHT22;24365;48.446;8.850;2024-01-25T22:08:14;7.00;89.90
38606;DHT22;24365;48.446;8.850;2024-01-25T22:13:15;7.00;90.00
38606;DHT22;24365;48.446;8.850;2024-01-25T22:18:16;6.90;89.70
38606;DHT22;24365;48.446;8.850;2024-01-25T22:23:17;6.80;89.00
38606;DHT22;24365;48.446;8.850;2024-01-25T22:28:18;6.70;89.60
38606;DHT22;24365;48.446;8.850;2024-01-25T22:33:19;6.70;89.30
38606;DHT22;24365;48.446;8.850;2024-01-25T22:38:20;6.70;89.40
38606;DHT22;24365;48.446;8.850;2024-01-25T22:43:21;6.60;89.50
38606;DHT22;24365;48.446;8.850;2024-01-25T22:48:23;6.60;88.90
38606;DHT22;24365;48.446;8.850;2024-01-25T22:53:23;6.50;88.90
38606;DHT22;24365;48.446;8.850;2024-01-25T22:58:24;6.50;89.00
38606;DHT22;24365;48.446;8.850;2024-01-25T23:03:25;6.40;89.00
38606;DHT22;24365;48.446;8.850;2024-01-25T23:08:26;6.30;89.00
38606;DHT22;24365;48.446;8.850;2024-01-25T23:13:27;6.30;89.50
38606;DHT22;24365;48.446;8.850;2024-01-25T23:18:28;6.20;89.90
38606;DHT22;24365;48.446;8.850;2024-01-25T23:23:29;6.30;89.90
38606;DHT22;24365;48.446;8.850;2024-01-25T23:28:30;6.30;89.30
38606;DHT22;24365;48.446;8.850;2024-01-25T23:33:31;6.20;89.70
38606;DHT22;24365;48.446;8.850;2024-01-25T23:38:32;6.20;89.30
38606;DHT22;24365;48.446;8.850;2024-01-25T23:43:33;6.20;89.30
38606;DHT22;24365;48.446;8.850;2024-01-25T23:48:33;6.10;89.70
38606;DHT22;24365;48.446;8.850;2024-01-25T23:53:34;6.10;89.80
38606;DHT22;24365;48.446;8.850;2024-01-25T23:58:38;6.10;89.60
